sensor_id;sensor_type;location;lat;lon;timestamp;pressure;altitude;pressure_sealevel;temperature;humidity
13695;BME280;6919;52.344;14.518;2023-01-08T00:01:30;100265.47;;;7.35;100.00
13695;BME280;6919;52.344;14.518;2023-01-08T00:03:58;100265.47;;;7.45;100.00
13695;BME280;6919;52.344;14.518;2023-01-08T00:06:28;100268.81;;;7.47;100.00
13695;BME280;6919;52.344;14.518;2023-01-08T00:08:56;100268.53;;;7.50;100.00
13695;BME280;6919;52.344;14.518;2023-01-08T00:11:24;100262.50;;;7.48;100.00
13695;BME280;6919;52.344;14.518;2023-01-08T00:13:53;100257.31;;;7.37;100.00
13695;BME280;6919;52.344;14.518;2023-01-08T00:16:22;100255.38;;;7.39;100.00
13695;BME280;6919;52.344;14.518;2023-01-08T00:18:51;100249.19;;;7.38;100.00
13695;BME280;6919;52.344;14.518;2023-01-08T00:21:19;100248.34;;;7.38;100.00
13695;BME280;6919;52.344;14.518;2023-01-08T00:23:48;100253.69;;;7.38;100.00
13695;BME280;6919;52.344;14.518;2023-01-08T00:26:16;100245.13;;;7.34;100.00
13695;BME280;6919;52.344;14.518;2023-01-08T00:28:44;100246.66;;;7.27;100.00
13695;BME280;6919;52.344;14.518;2023-01-08T00:31:13;100254.94;;;7.34;100.00
13695;BME280;6919;52.344;14.518;2023-01-08T00:33:42;100248.34;;;7.38;100.00
13695;BME280;6919;52.344;14.518;2023-01-08T00:36:14;100247.09;;;7.32;100.00
13695;BME280;6919;52.344;14.518;2023-01-08T00:38:44;100235.69;;;7.40;100.00
13695;BME280;6919;52.344;14.518;2023-01-08T00:41:14;100230.66;;;7.37;100.00
13695;BME280;6919;52.344;14.518;2023-01-08T00:43:43;100227.16;;;7.36;100.00
13695;BME280;6919;52.344;14.518;2023-01-08T00:46:11;100227.59;;;7.32;100.00
13695;BME280;6919;52.344;14.518;2023-01-08T00:48:39;100221.53;;;7.30;100.00
13695;BME280;6919;52.344;14.518;2023-01-08T00:51:09;100210.59;;;7.33;100.00
13695;BME280;6919;52.344;14.518;2023-01-08T00:53:37;100216.66;;;7.25;100.00
13695;BME280;6919;52.344;14.518;2023-01-08T00:56:08;100217.19;;;7.29;100.00
13695;BME280;6919;52.344;14.518;2023-01-08T00:58:37;100200.81;;;7.24;100.00
13695;BME280;6919;52.344;14.518;2023-01-08T01:01:09;100197.41;;;7.22;100.00
13695;BME280;6919;52.344;14.518;2023-01-08T01:03:38;100204.19;;;7.07;100.00
13695;BME280;6919;52.344;14.518;2023-01-08T01:06:09;100200.81;;;7.05;100.00
13695;BME280;6919;52.344;14.518;2023-01-08T01:08:37;100185.81;;;6.94;100.00
13695;BME280;6919;52.344;14.518;2023-01-08T01:11:07;100192.81;;;6.86;100.00
13695;BME280;6919;52.344;14.518;2023-01-08T01:13:36;100189.19;;;6.77;100.00
13695;BME280;6919;52.344;14.518;2023-01-08T01:16:05;100190.84;;;6.69;100.00
13695;BME280;6919;52.344;14.518;2023-01-08T01:18:33;100193.25;;;6.72;100.00
13695;BME280;6919;52.344;14.518;2023-01-08T01:21:10;100186.34;;;6.60;100.00
13695;BME280;6919;52.344;14.518;2023-01-08T01:23:39;100183.56;;;6.52;100.00
13695;BME280;6919;52.344;14.518;2023-01-08T01:26:14;100181.59;;;6.54;100.00
13695;BME280;6919;52.344;14.518;2023-01-08T01:28:47;100177.41;;;6.51;100.00
13695;BME280;6919;52.344;14.518;2023-01-08T01:31:16;100164.75;;;6.44;100.00
13695;BME280;6919;52.344;14.518;2023-01-08T01:33:45;100157.31;;;6.38;100.00
13695;BME280;6919;52.344;14.518;2023-01-08T01:36:18;100160.56;;;6.32;100.00
13695;BME280;6919;52.344;14.518;2023-01-08T01:38:49;100151.03;;;6.39;100.00
13695;BME280;6919;52.344;14.518;2023-01-08T01:41:25;100155.25;;;6.51;100.00
13695;BME280;6919;52.344;14.518;2023-01-08T01:43:56;100155.66;;;6.37;100.00
13695;BME280;6919;52.344;14.518;2023-01-08T01:46:35;100156.50;;;6.37;100.00
13695;BME280;6919;52.344;14.518;2023-01-08T01:49:09;100144.28;;;6.35;100.00
13695;BME280;6919;52.344;14.518;2023-01-08T01:51:45;100143.72;;;6.31;100.00
13695;BME280;6919;52.344;14.518;2023-01-08T01:54:16;100137.28;;;6.24;100.00
13695;BME280;6919;52.344;14.518;2023-01-08T01:56:46;100135.28;;;6.17;100.00
13695;BME280;6919;52.344;14.518;2023-01-08T01:59:15;100135.75;;;6.22;100.00
13695;BME280;6919;52.344;14.518;2023-01-08T02:01:43;100135.28;;;6.17;100.00
13695;BME280;6919;52.344;14.518;2023-01-08T02:04:13;100133.63;;;6.16;100.00
13695;BME280;6919;52.344;14.518;2023-01-08T02:06:51;100126.44;;;6.06;100.00
13695;BME280;6919;52.344;14.518;2023-01-08T02:09:37;100127.84;;;6.01;100.00
13695;BME280;6919;52.344;14.518;2023-01-08T02:12:14;100123.63;;;5.98;100.00
13695;BME280;6919;52.344;14.518;2023-01-08T02:15:06;100125.19;;;6.01;100.00
13695;BME280;6919;52.344;14.518;2023-01-08T02:17:44;100126.44;;;6.06;100.00
13695;BME280;6919;52.344;14.518;2023-01-08T02:20:20;100110.91;;;5.92;100.00
13695;BME280;6919;52.344;14.518;2023-01-08T02:23:15;100103.19;;;5.89;100.00
13695;BME280;6919;52.344;14.518;2023-01-08T02:26:06;100101.47;;;5.88;100.00
13695;BME280;6919;52.344;14.518;2023-01-08T02:28:42;100106.13;;;5.86;100.00
13695;BME280;6919;52.344;14.518;2023-01-08T02:31:13;100109.28;;;5.80;100.00
13695;BME280;6919;52.344;14.518;2023-01-08T02:33:43;100091.50;;;5.71;100.00
13695;BME280;6919;52.344;14.518;2023-01-08T02:36:29;100093.28;;;5.61;100.00
13695;BME280;6919;52.344;14.518;2023-01-08T02:39:13;100075.47;;;5.62;100.00
13695;BME280;6919;52.344;14.518;2023-01-08T02:42:06;100079.13;;;5.61;100.00
13695;BME280;6919;52.344;14.518;2023-01-08T02:44:54;100076.06;;;5.65;100.00
13695;BME280;6919;52.344;14.518;2023-01-08T02:47:34;100081.25;;;5.67;100.00
13695;BME280;6919;52.344;14.518;2023-01-08T02:50:14;100072.97;;;5.60;100.00
13695;BME280;6919;52.344;14.518;2023-01-08T02:52:54;100067.09;;;5.57;100.00
13695;BME280;6919;52.344;14.518;2023-01-08T02:55:27;100057.69;;;5.43;100.00
13695;BME280;6919;52.344;14.518;2023-01-08T02:57:59;100051.09;;;5.38;100.00
13695;BME280;6919;52.344;14.518;2023-01-08T03:00:29;100056.78;;;5.33;100.00
13695;BME280;6919;52.344;14.518;2023-01-08T03:03:05;100054.28;;;5.41;100.00
13695;BME280;6919;52.344;14.518;2023-01-08T03:05:39;100061.72;;;5.38;100.00
13695;BME280;6919;52.344;14.518;2023-01-08T03:08:09;100042.25;;;5.37;100.00
13695;BME280;6919;52.344;14.518;2023-01-08T03:10:42;100032.59;;;5.36;100.00
13695;BME280;6919;52.344;14.518;2023-01-08T03:13:18;100030.91;;;5.35;100.00
13695;BME280;6919;52.344;14.518;2023-01-08T03:15:54;100024.31;;;5.30;100.00
13695;BME280;6919;52.344;14.518;2023-01-08T03:18:31;100034.69;;;5.33;100.00
13695;BME280;6919;52.344;14.518;2023-01-08T03:21:04;100037.06;;;5.36;100.00
13695;BME280;6919;52.344;14.518;2023-01-08T03:23:35;100039.25;;;5.21;100.00
13695;BME280;6919;52.344;14.518;2023-01-08T03:26:06;100038.44;;;5.21;100.00
13695;BME280;6919;52.344;14.518;2023-01-08T03:28:41;100031.13;;;5.13;100.00
13695;BME280;6919;52.344;14.518;2023-01-08T03:31:14;100034.16;;;5.09;100.00
13695;BME280;6919;52.344;14.518;2023-01-08T03:33:44;100032.63;;;5.06;100.00
13695;BME280;6919;52.344;14.518;2023-01-08T03:36:17;100030.81;;;5.07;100.00
13695;BME280;6919;52.344;14.518;2023-01-08T03:38:53;100023.03;;;5.24;100.00
13695;BME280;6919;52.344;14.518;2023-01-08T03:41:28;100018.53;;;5.15;100.00
13695;BME280;6919;52.344;14.518;2023-01-08T03:43:59;100016.13;;;5.03;100.00
13695;BME280;6919;52.344;14.518;2023-01-08T03:46:32;100014.53;;;5.00;100.00
13695;BME280;6919;52.344;14.518;2023-01-08T03:49:04;100022.13;;;5.05;100.00
13695;BME280;6919;52.344;14.518;2023-01-08T03:51:39;100003.91;;;5.00;100.00
13695;BME280;6919;52.344;14.518;2023-01-08T03:54:12;100000.69;;;4.97;100.00
13695;BME280;6919;52.344;14.518;2023-01-08T03:56:41;99995.69;;;5.03;100.00
13695;BME280;6919;52.344;14.518;2023-01-08T03:59:12;99995.00;;;5.01;100.00
13695;BME280;6919;52.344;14.518;2023-01-08T04:01:41;99994.41;;;4.98;100.00
13695;BME280;6919;52.344;14.518;2023-01-08T04:04:10;99997.25;;;5.06;100.00
13695;BME280;6919;52.344;14.518;2023-01-08T04:06:39;100002.06;;;4.91;100.00
13695;BME280;6919;52.344;14.518;2023-01-08T04:09:07;100001.50;;;4.88;100.00
13695;BME280;6919;52.344;14.518;2023-01-08T04:11:36;99999.13;;;4.85;100.00
13695;BME280;6919;52.344;14.518;2023-01-08T04:14:04;100003.84;;;4.81;100.00
13695;BME280;6919;52.344;14.518;2023-01-08T04:16:33;100012.78;;;4.80;100.00
13695;BME280;6919;52.344;14.518;2023-01-08T04:19:02;100003.06;;;4.90;100.00
13695;BME280;6919;52.344;14.518;2023-01-08T04:21:30;99995.22;;;4.89;100.00
13695;BME280;6919;52.344;14.518;2023-01-08T04:23:58;100001.09;;;4.92;100.00
13695;BME280;6919;52.344;14.518;2023-01-08T04:26:26;100002.59;;;4.85;100.00
13695;BME280;6919;52.344;14.518;2023-01-08T04:28:55;100014.91;;;4.86;100.00
13695;BME280;6919;52.344;14.518;2023-01-08T04:31:23;100012.06;;;4.78;100.00
13695;BME280;6919;52.344;14.518;2023-01-08T04:33:53;100016.88;;;4.84;100.00
13695;BME280;6919;52.344;14.518;2023-01-08T04:36:21;100006.53;;;4.91;100.00
13695;BME280;6919;52.344;14.518;2023-01-08T04:38:49;100002.34;;;4.88;100.00
13695;BME280;6919;52.344;14.518;2023-01-08T04:41:18;99991.97;;;4.85;100.00
13695;BME280;6919;52.344;14.518;2023-01-08T04:43:46;99984.28;;;4.82;100.00
13695;BME280;6919;52.344;14.518;2023-01-08T04:46:14;99978.53;;;4.77;100.00
13695;BME280;6919;52.344;14.518;2023-01-08T04:48:42;99965.41;;;4.85;100.00
13695;BME280;6919;52.344;14.518;2023-01-08T04:51:12;99954.34;;;4.71;100.00
13695;BME280;6919;52.344;14.518;2023-01-08T04:53:40;99966.88;;;4.69;100.00
13695;BME280;6919;52.344;14.518;2023-01-08T04:56:10;99965.09;;;4.69;100.00
13695;BME280;6919;52.344;14.518;2023-01-08T04:58:39;99960.59;;;4.70;100.00
13695;BME280;6919;52.344;14.518;2023-01-08T05:01:15;99957.81;;;4.71;100.00
13695;BME280;6919;52.344;14.518;2023-01-08T05:03:45;99968.63;;;4.79;100.00
13695;BME280;6919;52.344;14.518;2023-01-08T05:06:15;99965.28;;;4.87;100.00
13695;BME280;6919;52.344;14.518;2023-01-08T05:08:43;99958.31;;;4.86;100.00
13695;BME280;6919;52.344;14.518;2023-01-08T05:11:11;99956.78;;;4.93;100.00
13695;BME280;6919;52.344;14.518;2023-01-08T05:13:39;99947.00;;;4.93;100.00
13695;BME280;6919;52.344;14.518;2023-01-08T05:16:08;99941.41;;;4.96;100.00
13695;BME280;6919;52.344;14.518;2023-01-08T05:18:36;99935.91;;;5.18;100.00
13695;BME280;6919;52.344;14.518;2023-01-08T05:21:05;99933.50;;;5.15;100.00
13695;BME280;6919;52.344;14.518;2023-01-08T05:23:34;99933.00;;;5.31;100.00
13695;BME280;6919;52.344;14.518;2023-01-08T05:26:05;99929.91;;;5.35;100.00
13695;BME280;6919;52.344;14.518;2023-01-08T05:28:34;99930.75;;;5.36;100.00
13695;BME280;6919;52.344;14.518;2023-01-08T05:31:02;99934.53;;;5.33;100.00
13695;BME280;6919;52.344;14.518;2023-01-08T05:33:30;99933.53;;;5.34;100.00
13695;BME280;6919;52.344;14.518;2023-01-08T05:35:58;99934.94;;;5.38;100.00
13695;BME280;6919;52.344;14.518;2023-01-08T05:38:27;99933.28;;;5.37;100.00
13695;BME280;6919;52.344;14.518;2023-01-08T05:40:56;99936.06;;;5.45;100.00
13695;BME280;6919;52.344;14.518;2023-01-08T05:43:24;99939.84;;;5.43;100.00
13695;BME280;6919;52.344;14.518;2023-01-08T05:45:53;99936.34;;;5.33;100.00
13695;BME280;6919;52.344;14.518;2023-01-08T05:48:21;99934.38;;;5.25;100.00
13695;BME280;6919;52.344;14.518;2023-01-08T05:50:49;99927.94;;;5.28;100.00
13695;BME280;6919;52.344;14.518;2023-01-08T05:53:18;99929.06;;;5.25;100.00
13695;BME280;6919;52.344;14.518;2023-01-08T05:55:46;99927.09;;;5.18;100.00
13695;BME280;6919;52.344;14.518;2023-01-08T05:58:16;99927.75;;;5.20;100.00
13695;BME280;6919;52.344;14.518;2023-01-08T06:00:45;99924.28;;;5.19;100.00
13695;BME280;6919;52.344;14.518;2023-01-08T06:03:13;99917.00;;;5.21;100.00
13695;BME280;6919;52.344;14.518;2023-01-08T06:05:41;99918.41;;;5.16;100.00
13695;BME280;6919;52.344;14.518;2023-01-08T06:08:09;99916.31;;;5.19;100.00
13695;BME280;6919;52.344;14.518;2023-01-08T06:10:38;99914.91;;;5.15;100.00
13695;BME280;6919;52.344;14.518;2023-01-08T06:13:06;99917.31;;;5.18;100.00
13695;BME280;6919;52.344;14.518;2023-01-08T06:15:37;99925.22;;;5.09;100.00
13695;BME280;6919;52.344;14.518;2023-01-08T06:18:06;99916.84;;;5.04;100.00
13695;BME280;6919;52.344;14.518;2023-01-08T06:20:34;99915.44;;;5.09;100.00
13695;BME280;6919;52.344;14.518;2023-01-08T06:23:02;99910.00;;;5.01;100.00
13695;BME280;6919;52.344;14.518;2023-01-08T06:25:30;99902.13;;;4.90;100.00
13695;BME280;6919;52.344;14.518;2023-01-08T06:27:59;99900.47;;;4.99;100.00
13695;BME280;6919;52.344;14.518;2023-01-08T06:30:27;99900.50;;;5.18;100.00
13695;BME280;6919;52.344;14.518;2023-01-08T06:32:57;99887.50;;;5.15;100.00
13695;BME280;6919;52.344;14.518;2023-01-08T06:35:26;99889.59;;;5.21;100.00
13695;BME280;6919;52.344;14.518;2023-01-08T06:37:55;99883.56;;;5.19;100.00
13695;BME280;6919;52.344;14.518;2023-01-08T06:40:23;99894.91;;;5.11;100.00
13695;BME280;6919;52.344;14.518;2023-01-08T06:42:52;99889.28;;;5.14;100.00
13695;BME280;6919;52.344;14.518;2023-01-08T06:45:20;99899.97;;;5.24;100.00
13695;BME280;6919;52.344;14.518;2023-01-08T06:47:48;99898.28;;;5.23;100.00
13695;BME280;6919;52.344;14.518;2023-01-08T06:50:18;99908.38;;;5.38;100.00
13695;BME280;6919;52.344;14.518;2023-01-08T06:52:51;99890.47;;;5.40;100.00
13695;BME280;6919;52.344;14.518;2023-01-08T06:55:21;99889.75;;;5.48;100.00
13695;BME280;6919;52.344;14.518;2023-01-08T06:57:53;99887.81;;;5.40;100.00
13695;BME280;6919;52.344;14.518;2023-01-08T07:00:22;99897.88;;;5.46;100.00
13695;BME280;6919;52.344;14.518;2023-01-08T07:02:52;99889.34;;;5.52;100.00
13695;BME280;6919;52.344;14.518;2023-01-08T07:05:22;99894.38;;;5.55;100.00
13695;BME280;6919;52.344;14.518;2023-01-08T07:07:51;99897.91;;;5.56;100.00
13695;BME280;6919;52.344;14.518;2023-01-08T07:10:19;99892.44;;;5.67;100.00
13695;BME280;6919;52.344;14.518;2023-01-08T07:12:48;99899.69;;;5.74;100.00
13695;BME280;6919;52.344;14.518;2023-01-08T07:15:16;99888.22;;;5.74;100.00
13695;BME280;6919;52.344;14.518;2023-01-08T07:17:44;99894.69;;;5.71;100.00
13695;BME280;6919;52.344;14.518;2023-01-08T07:20:12;99891.56;;;5.76;100.00
13695;BME280;6919;52.344;14.518;2023-01-08T07:22:42;99896.63;;;5.88;100.00
13695;BME280;6919;52.344;14.518;2023-01-08T07:25:10;99895.81;;;5.88;100.00
13695;BME280;6919;52.344;14.518;2023-01-08T07:27:39;99890.91;;;5.83;100.00
13695;BME280;6919;52.344;14.518;2023-01-08T07:30:08;99896.47;;;5.99;100.00
13695;BME280;6919;52.344;14.518;2023-01-08T07:32:57;99893.28;;;5.96;100.00
13695;BME280;6919;52.344;14.518;2023-01-08T07:35:28;99888.34;;;6.01;100.00
13695;BME280;6919;52.344;14.518;2023-01-08T07:37:57;99876.88;;;6.10;100.00
13695;BME280;6919;52.344;14.518;2023-01-08T07:40:26;99876.84;;;6.20;100.00
13695;BME280;6919;52.344;14.518;2023-01-08T07:42:58;99880.19;;;6.31;100.00
13695;BME280;6919;52.344;14.518;2023-01-08T07:45:28;99868.97;;;6.37;100.00
13695;BME280;6919;52.344;14.518;2023-01-08T07:47:57;99865.25;;;6.48;100.00
13695;BME280;6919;52.344;14.518;2023-01-08T07:50:26;99870.38;;;6.59;100.00
13695;BME280;6919;52.344;14.518;2023-01-08T07:52:58;99864.44;;;6.74;100.00
13695;BME280;6919;52.344;14.518;2023-01-08T07:55:28;99863.16;;;6.78;100.00
13695;BME280;6919;52.344;14.518;2023-01-08T07:57:57;99862.81;;;6.91;100.00
13695;BME280;6919;52.344;14.518;2023-01-08T08:00:26;99856.66;;;6.90;100.00
13695;BME280;6919;52.344;14.518;2023-01-08T08:03:01;99852.41;;;6.97;100.00
13695;BME280;6919;52.344;14.518;2023-01-08T08:05:29;99857.41;;;7.00;100.00
13695;BME280;6919;52.344;14.518;2023-01-08T08:07:59;99870.38;;;7.13;100.00
13695;BME280;6919;52.344;14.518;2023-01-08T08:10:28;99874.59;;;7.15;100.00
13695;BME280;6919;52.344;14.518;2023-01-08T08:12:56;99876.03;;;7.27;100.00
13695;BME280;6919;52.344;14.518;2023-01-08T08:15:24;99869.19;;;7.42;100.00
13695;BME280;6919;52.344;14.518;2023-01-08T08:17:52;99878.78;;;7.35;100.00
13695;BME280;6919;52.344;14.518;2023-01-08T08:20:20;99884.59;;;7.48;100.00
13695;BME280;6919;52.344;14.518;2023-01-08T08:22:49;99880.47;;;7.54;100.00
13695;BME280;6919;52.344;14.518;2023-01-08T08:25:18;99877.13;;;7.69;100.00
13695;BME280;6919;52.344;14.518;2023-01-08T08:27:47;99881.16;;;7.73;100.00
13695;BME280;6919;52.344;14.518;2023-01-08T08:30:17;99882.00;;;7.74;100.00
13695;BME280;6919;52.344;14.518;2023-01-08T08:32:46;99882.59;;;7.85;100.00
13695;BME280;6919;52.344;14.518;2023-01-08T08:35:14;99871.38;;;7.82;100.00
13695;BME280;6919;52.344;14.518;2023-01-08T08:37:43;99861.00;;;7.79;100.00
13695;BME280;6919;52.344;14.518;2023-01-08T08:40:11;99863.84;;;7.77;100.00
13695;BME280;6919;52.344;14.518;2023-01-08T08:42:41;99860.41;;;7.85;100.00
13695;BME280;6919;52.344;14.518;2023-01-08T08:45:09;99855.88;;;8.03;100.00
13695;BME280;6919;52.344;14.518;2023-01-08T08:47:38;99864.44;;;7.89;100.00
13695;BME280;6919;52.344;14.518;2023-01-08T08:50:08;99857.63;;;7.94;100.00
13695;BME280;6919;52.344;14.518;2023-01-08T08:52:36;99859.91;;;8.07;100.00
13695;BME280;6919;52.344;14.518;2023-01-08T08:55:05;99853.56;;;8.25;100.00
13695;BME280;6919;52.344;14.518;2023-01-08T08:57:33;99851.56;;;8.10;100.00
13695;BME280;6919;52.344;14.518;2023-01-08T09:00:04;99848.91;;;8.10;100.00
13695;BME280;6919;52.344;14.518;2023-01-08T09:02:33;99851.03;;;8.24;100.00
13695;BME280;6919;52.344;14.518;2023-01-08T09:05:01;99862.31;;;8.18;100.00
13695;BME280;6919;52.344;14.518;2023-01-08T09:07:30;99862.41;;;8.26;100.00
13695;BME280;6919;52.344;14.518;2023-01-08T09:09:58;99858.09;;;8.33;100.00
13695;BME280;6919;52.344;14.518;2023-01-08T09:12:26;99853.09;;;8.30;100.00
13695;BME280;6919;52.344;14.518;2023-01-08T09:14:55;99855.03;;;8.53;100.00
13695;BME280;6919;52.344;14.518;2023-01-08T09:17:25;99858.09;;;8.33;100.00
13695;BME280;6919;52.344;14.518;2023-01-08T09:19:53;99852.38;;;8.28;100.00
13695;BME280;6919;52.344;14.518;2023-01-08T09:22:21;99851.94;;;8.32;100.00
13695;BME280;6919;52.344;14.518;2023-01-08T09:24:50;99853.56;;;8.25;100.00
13695;BME280;6919;52.344;14.518;2023-01-08T09:27:18;99852.75;;;8.33;100.00
13695;BME280;6919;52.344;14.518;2023-01-08T09:29:46;99841.91;;;8.09;100.00
13695;BME280;6919;52.344;14.518;2023-01-08T09:32:14;99841.41;;;8.13;100.00
13695;BME280;6919;52.344;14.518;2023-01-08T09:34:44;99842.38;;;8.04;100.00
13695;BME280;6919;52.344;14.518;2023-01-08T09:37:12;99834.50;;;8.03;100.00
13695;BME280;6919;52.344;14.518;2023-01-08T09:39:40;99842.31;;;7.96;100.00
13695;BME280;6919;52.344;14.518;2023-01-08T09:42:15;99849.84;;;8.01;100.00
13695;BME280;6919;52.344;14.518;2023-01-08T09:44:51;99838.53;;;8.07;100.00
13695;BME280;6919;52.344;14.518;2023-01-08T09:47:26;99828.75;;;8.15;100.00
13695;BME280;6919;52.344;14.518;2023-01-08T09:50:02;99851.28;;;8.13;100.00
13695;BME280;6919;52.344;14.518;2023-01-08T09:52:32;99843.47;;;8.19;100.00
13695;BME280;6919;52.344;14.518;2023-01-08T09:55:00;99839.88;;;8.28;100.00
13695;BME280;6919;52.344;14.518;2023-01-08T09:57:29;99845.13;;;8.38;100.00
13695;BME280;6919;52.344;14.518;2023-01-08T09:59:57;99832.94;;;8.43;100.00
13695;BME280;6919;52.344;14.518;2023-01-08T10:02:26;99844.06;;;8.31;100.00
13695;BME280;6919;52.344;14.518;2023-01-08T10:04:59;99830.88;;;8.29;100.00
13695;BME280;6919;52.344;14.518;2023-01-08T10:07:29;99837.75;;;8.40;100.00
13695;BME280;6919;52.344;14.518;2023-01-08T10:09:59;99831.38;;;8.33;100.00
13695;BME280;6919;52.344;14.518;2023-01-08T10:12:30;99804.31;;;8.61;100.00
13695;BME280;6919;52.344;14.518;2023-01-08T10:15:02;99802.88;;;8.41;100.00
13695;BME280;6919;52.344;14.518;2023-01-08T10:17:38;99803.25;;;8.46;100.00
13695;BME280;6919;52.344;14.518;2023-01-08T10:20:13;99808.88;;;8.35;100.00
13695;BME280;6919;52.344;14.518;2023-01-08T10:22:42;99805.91;;;8.21;100.00
13695;BME280;6919;52.344;14.518;2023-01-08T10:25:15;99802.97;;;8.24;100.00
13695;BME280;6919;52.344;14.518;2023-01-08T10:27:49;99813.63;;;8.49;100.00
13695;BME280;6919;52.344;14.518;2023-01-08T10:30:22;99812.31;;;8.53;100.00
13695;BME280;6919;52.344;14.518;2023-01-08T10:32:53;99820.88;;;8.65;100.00
13695;BME280;6919;52.344;14.518;2023-01-08T10:35:39;99816.75;;;8.86;100.00
13695;BME280;6919;52.344;14.518;2023-01-08T10:38:25;99811.63;;;9.01;100.00
13695;BME280;6919;52.344;14.518;2023-01-08T10:40:55;99814.00;;;9.12;100.00
13695;BME280;6919;52.344;14.518;2023-01-08T10:43:28;99812.31;;;9.11;100.00
13695;BME280;6919;52.344;14.518;2023-01-08T10:46:00;99819.69;;;9.17;100.00
13695;BME280;6919;52.344;14.518;2023-01-08T10:48:36;99807.97;;;9.10;100.00
13695;BME280;6919;52.344;14.518;2023-01-08T10:51:16;99797.47;;;9.17;100.00
13695;BME280;6919;52.344;14.518;2023-01-08T10:53:45;99797.78;;;9.14;100.00
13695;BME280;6919;52.344;14.518;2023-01-08T10:56:19;99789.59;;;9.23;100.00
13695;BME280;6919;52.344;14.518;2023-01-08T10:58:49;99781.91;;;9.28;100.00
13695;BME280;6919;52.344;14.518;2023-01-08T11:01:22;99795.63;;;9.25;100.00
13695;BME280;6919;52.344;14.518;2023-01-08T11:03:55;99793.78;;;9.18;100.00
13695;BME280;6919;52.344;14.518;2023-01-08T11:06:28;99786.44;;;9.28;100.00
13695;BME280;6919;52.344;14.518;2023-01-08T11:09:01;99787.94;;;9.30;100.00
13695;BME280;6919;52.344;14.518;2023-01-08T11:11:33;99771.41;;;9.35;100.00
13695;BME280;6919;52.344;14.518;2023-01-08T11:14:15;99779.25;;;9.52;100.00
13695;BME280;6919;52.344;14.518;2023-01-08T11:16:48;99788.13;;;9.61;100.00
13695;BME280;6919;52.344;14.518;2023-01-08T11:19:21;99777.91;;;9.72;100.00
13695;BME280;6919;52.344;14.518;2023-01-08T11:21:57;99774.06;;;9.75;100.00
13695;BME280;6919;52.344;14.518;2023-01-08T11:24:29;99767.88;;;9.66;100.00
13695;BME280;6919;52.344;14.518;2023-01-08T11:27:06;99775.91;;;9.66;100.00
13695;BME280;6919;52.344;14.518;2023-01-08T11:29:43;99778.41;;;9.68;100.00
13695;BME280;6919;52.344;14.518;2023-01-08T11:32:34;99773.91;;;9.52;100.00
13695;BME280;6919;52.344;14.518;2023-01-08T11:35:12;99764.53;;;9.56;100.00
13695;BME280;6919;52.344;14.518;2023-01-08T11:37:49;99757.34;;;9.49;100.00
13695;BME280;6919;52.344;14.518;2023-01-08T11:40:36;99753.34;;;9.53;100.00
13695;BME280;6919;52.344;14.518;2023-01-08T11:43:31;99751.47;;;9.53;100.00
13695;BME280;6919;52.344;14.518;2023-01-08T11:46:22;99744.59;;;9.75;100.00
13695;BME280;6919;52.344;14.518;2023-01-08T11:49:30;99746.97;;;9.62;100.00
13695;BME280;6919;52.344;14.518;2023-01-08T11:52:31;99744.28;;;9.70;100.00
13695;BME280;6919;52.344;14.518;2023-01-08T11:55:26;99743.78;;;9.82;100.00
13695;BME280;6919;52.344;14.518;2023-01-08T11:58:17;99731.03;;;9.84;100.00
13695;BME280;6919;52.344;14.518;2023-01-08T12:01:16;99743.22;;;9.87;100.00
13695;BME280;6919;52.344;14.518;2023-01-08T12:04:03;99748.59;;;9.95;100.00
13695;BME280;6919;52.344;14.518;2023-01-08T12:06:47;99737.75;;;9.72;100.00
13695;BME280;6919;52.344;14.518;2023-01-08T12:09:37;99734.03;;;9.81;100.00
13695;BME280;6919;52.344;14.518;2023-01-08T12:12:21;99738.06;;;9.85;100.00
13695;BME280;6919;52.344;14.518;2023-01-08T12:15:06;99726.31;;;9.94;100.00
13695;BME280;6919;52.344;14.518;2023-01-08T12:18:01;99731.38;;;9.81;100.00
13695;BME280;6919;52.344;14.518;2023-01-08T12:20:37;99730.75;;;9.71;100.00
13695;BME280;6919;52.344;14.518;2023-01-08T12:23:22;99717.31;;;9.87;100.00
13695;BME280;6919;52.344;14.518;2023-01-08T12:26:10;99718.97;;;9.96;100.00
13695;BME280;6919;52.344;14.518;2023-01-08T12:29:20;99717.78;;;10.07;100.00
13695;BME280;6919;52.344;14.518;2023-01-08T12:32:16;99721.06;;;10.25;100.00
13695;BME280;6919;52.344;14.518;2023-01-08T12:34:58;99725.44;;;10.18;100.00
13695;BME280;6919;52.344;14.518;2023-01-08T12:37:37;99719.63;;;10.14;100.00
13695;BME280;6919;52.344;14.518;2023-01-08T12:40:18;99716.25;;;10.04;100.00
13695;BME280;6919;52.344;14.518;2023-01-08T12:42:47;99702.81;;;10.20;100.00
13695;BME280;6919;52.344;14.518;2023-01-08T12:45:33;99699.16;;;10.13;100.00
13695;BME280;6919;52.344;14.518;2023-01-08T12:48:06;99694.81;;;10.12;100.00
13695;BME280;6919;52.344;14.518;2023-01-08T12:50:46;99690.66;;;10.02;100.00
13695;BME280;6919;52.344;14.518;2023-01-08T12:53:28;99688.28;;;10.23;100.00
13695;BME280;6919;52.344;14.518;2023-01-08T12:56:08;99693.47;;;10.24;100.00
13695;BME280;6919;52.344;14.518;2023-01-08T12:58:53;99688.28;;;10.23;100.00
13695;BME280;6919;52.344;14.518;2023-01-08T13:01:36;99695.81;;;10.19;100.00
13695;BME280;6919;52.344;14.518;2023-01-08T13:04:10;99687.81;;;10.03;100.00
13695;BME280;6919;52.344;14.518;2023-01-08T13:06:50;99680.06;;;10.24;100.00
13695;BME280;6919;52.344;14.518;2023-01-08T13:09:24;99676.25;;;10.19;100.00
13695;BME280;6919;52.344;14.518;2023-01-08T13:11:57;99683.44;;;10.18;100.00
13695;BME280;6919;52.344;14.518;2023-01-08T13:14:27;99677.69;;;10.29;100.00
13695;BME280;6919;52.344;14.518;2023-01-08T13:17:06;99681.09;;;10.15;100.00
13695;BME280;6919;52.344;14.518;2023-01-08T13:19:44;99672.88;;;10.17;100.00
13695;BME280;6919;52.344;14.518;2023-01-08T13:22:24;99685.13;;;10.11;100.00
13695;BME280;6919;52.344;14.518;2023-01-08T13:25:21;99678.25;;;10.17;100.00